PWSweather.com
Personal Weather Stations
Station Observations
PALMY
Palmerston NorthNZ 4410

Palmerston NorthNZ 4410

Lat: -40.349104, Lon: 175.615094

Elevation: 75.4

Station Type: WeatherDuino Pro2

http://palmyweather.co.nz

High Low Average
Temperature 56.3°F13.5°C 51.0°F10.6°C 54.0°F12.2°C
Dew Point 55.2°F12.9°C 50.2°F10.1°C 52.6°F11.4°C
Winds 8.5 mph 13.7 kmh Calm Calm 4.0 mph SSW6.4 kmh SSW
Wind Gusts 21.1 mph34.0 kmh -- 8.0 mph12.9 kmh
Humidity 99% 89% 95%
Pressure 29.83 in1010.2 mb 29.58 in1001.7 mb -
Precipitation 0.32 in8.1 mm - -
Hour Temp Dew Point Humidity Winds Wind Gusts Pressure Precip Precip Rate Daily Precip Total
12:00 AM 55.9°F13.3°C 53.6°F12.0°C 92% 2.2 mph ESE3.5 kmh ESE 4.5 mph7.2 kmh 29.63 in1003.4 mb 0.00 in0.0 mm 0.00 in0.0 mm 0.00 in0.0 mm
12:05 AM 55.7°F13.2°C 53.5°F11.9°C 92% 2.7 mph SE4.3 kmh SE 4.9 mph7.9 kmh 29.63 in1003.4 mb 0.00 in0.0 mm 0.00 in0.0 mm 0.00 in0.0 mm
12:10 AM 55.5°F13.1°C 53.5°F11.9°C 93% 4.0 mph SSE6.4 kmh SSE 7.6 mph12.2 kmh 29.63 in1003.4 mb 0.00 in0.0 mm 0.00 in0.0 mm 0.00 in0.0 mm
12:15 AM 55.2°F12.9°C 53.5°F11.9°C 94% 4.0 mph SE6.4 kmh SE 7.6 mph12.2 kmh 29.63 in1003.4 mb 0.00 in0.0 mm 0.00 in0.0 mm 0.00 in0.0 mm
12:20 AM 55.2°F12.9°C 53.5°F11.9°C 94% 3.6 mph SE5.8 kmh SE 6.3 mph10.1 kmh 29.62 in1003.0 mb 0.00 in0.0 mm 0.00 in0.0 mm 0.00 in0.0 mm
12:25 AM 55.4°F13.0°C 53.7°F12.1°C 94% 4.5 mph ESE7.2 kmh ESE 8.5 mph13.7 kmh 29.62 in1003.0 mb 0.00 in0.0 mm 0.00 in0.0 mm 0.00 in0.0 mm
12:30 AM 55.4°F13.0°C 53.7°F12.1°C 94% 4.9 mph SE7.9 kmh SE 9.4 mph15.1 kmh 29.61 in1002.7 mb 0.00 in0.0 mm 0.00 in0.0 mm 0.00 in0.0 mm
12:35 AM 55.5°F13.1°C 53.8°F12.1°C 94% 4.9 mph SE7.9 kmh SE 9.9 mph15.9 kmh 29.61 in1002.7 mb 0.00 in0.0 mm 0.00 in0.0 mm 0.00 in0.0 mm
12:40 AM 55.5°F13.1°C 53.8°F12.1°C 94% 4.9 mph SE7.9 kmh SE 11.6 mph18.7 kmh 29.61 in1002.7 mb 0.00 in0.0 mm 0.00 in0.0 mm 0.00 in0.0 mm
12:45 AM 55.7°F13.2°C 53.7°F12.1°C 93% 5.8 mph ESE9.3 kmh ESE 14.8 mph23.8 kmh 29.61 in1002.7 mb 0.01 in0.3 mm 0.12 in3.0 mm 0.01 in0.3 mm
12:50 AM 55.7°F13.2°C 53.7°F12.1°C 93% 6.3 mph ESE10.1 kmh ESE 14.8 mph23.8 kmh 29.60 in1002.4 mb 0.01 in0.3 mm 0.00 in0.0 mm 0.01 in0.3 mm
12:55 AM 55.7°F13.2°C 53.7°F12.1°C 93% 6.7 mph ESE10.8 kmh ESE 13.4 mph21.6 kmh 29.61 in1002.7 mb 0.01 in0.3 mm 0.00 in0.0 mm 0.01 in0.3 mm
01:00 AM 55.7°F13.2°C 53.7°F12.1°C 93% 6.7 mph SE10.8 kmh SE 13.4 mph21.6 kmh 29.60 in1002.4 mb 0.01 in0.3 mm 0.00 in0.0 mm 0.01 in0.3 mm
01:05 AM 55.7°F13.2°C 53.7°F12.1°C 93% 7.2 mph SE11.6 kmh SE 13.9 mph22.4 kmh 29.60 in1002.4 mb 0.01 in0.3 mm 0.00 in0.0 mm 0.01 in0.3 mm
01:10 AM 56.3°F13.5°C 53.4°F11.9°C 90% 7.2 mph SE11.6 kmh SE 15.7 mph25.3 kmh 29.60 in1002.4 mb 0.01 in0.3 mm 0.00 in0.0 mm 0.01 in0.3 mm
01:15 AM 56.3°F13.5°C 53.4°F11.9°C 90% 7.6 mph ESE12.2 kmh ESE 15.7 mph25.3 kmh 29.60 in1002.4 mb 0.01 in0.3 mm 0.00 in0.0 mm 0.01 in0.3 mm
01:20 AM 56.1°F13.4°C 53.2°F11.8°C 90% 8.1 mph ESE13.0 kmh ESE 13.9 mph22.4 kmh 29.60 in1002.4 mb 0.01 in0.3 mm 0.00 in0.0 mm 0.01 in0.3 mm
01:25 AM 55.9°F13.3°C 53.4°F11.9°C 91% 7.2 mph ESE11.6 kmh ESE 19.7 mph31.7 kmh 29.60 in1002.4 mb 0.01 in0.3 mm 0.00 in0.0 mm 0.01 in0.3 mm
01:30 AM 56.1°F13.4°C 53.2°F11.8°C 90% 7.6 mph ESE12.2 kmh ESE 21.1 mph34.0 kmh 29.60 in1002.4 mb 0.01 in0.3 mm 0.00 in0.0 mm 0.01 in0.3 mm
01:35 AM 56.1°F13.4°C 53.2°F11.8°C 90% 8.5 mph ESE13.7 kmh ESE 21.1 mph34.0 kmh 29.60 in1002.4 mb 0.01 in0.3 mm 0.00 in0.0 mm 0.01 in0.3 mm
01:40 AM 56.3°F13.5°C 53.1°F11.7°C 89% 8.1 mph ESE13.0 kmh ESE 15.2 mph24.5 kmh 29.60 in1002.4 mb 0.00 in0.0 mm 0.00 in0.0 mm 0.01 in0.3 mm
01:45 AM 56.1°F13.4°C 52.9°F11.6°C 89% 7.6 mph ESE12.2 kmh ESE 14.8 mph23.8 kmh 29.60 in1002.4 mb 0.00 in0.0 mm 0.00 in0.0 mm 0.01 in0.3 mm
01:50 AM 56.1°F13.4°C 52.9°F11.6°C 89% 6.7 mph ESE10.8 kmh ESE 13.4 mph21.6 kmh 29.60 in1002.4 mb 0.00 in0.0 mm 0.00 in0.0 mm 0.01 in0.3 mm
01:55 AM 55.9°F13.3°C 53.0°F11.7°C 90% 6.7 mph ESE10.8 kmh ESE 13.4 mph21.6 kmh 29.60 in1002.4 mb 0.00 in0.0 mm 0.00 in0.0 mm 0.01 in0.3 mm
02:00 AM 55.9°F13.3°C 52.7°F11.5°C 89% 6.7 mph ESE10.8 kmh ESE 13.0 mph20.9 kmh 29.60 in1002.4 mb 0.00 in0.0 mm 0.00 in0.0 mm 0.01 in0.3 mm
02:05 AM 55.9°F13.3°C 52.7°F11.5°C 89% 7.2 mph E11.6 kmh E 13.0 mph20.9 kmh 29.60 in1002.4 mb 0.00 in0.0 mm 0.00 in0.0 mm 0.01 in0.3 mm
02:10 AM 55.7°F13.2°C 52.5°F11.4°C 89% 7.2 mph ESE11.6 kmh ESE 13.0 mph20.9 kmh 29.60 in1002.4 mb 0.00 in0.0 mm 0.00 in0.0 mm 0.01 in0.3 mm
02:15 AM 55.7°F13.2°C 52.5°F11.4°C 89% 6.3 mph ESE10.1 kmh ESE 12.1 mph19.5 kmh 29.60 in1002.4 mb 0.00 in0.0 mm 0.00 in0.0 mm 0.01 in0.3 mm
02:20 AM 55.5°F13.1°C 52.3°F11.3°C 89% 5.8 mph E9.3 kmh E 11.6 mph18.7 kmh 29.60 in1002.4 mb 0.00 in0.0 mm 0.00 in0.0 mm 0.01 in0.3 mm
02:25 AM 55.7°F13.2°C 52.5°F11.4°C 89% 6.7 mph ESE10.8 kmh ESE 11.6 mph18.7 kmh 29.61 in1002.7 mb 0.00 in0.0 mm 0.00 in0.0 mm 0.01 in0.3 mm
02:30 AM 55.5°F13.1°C 52.3°F11.3°C 89% 6.7 mph SE10.8 kmh SE 11.6 mph18.7 kmh 29.60 in1002.4 mb 0.00 in0.0 mm 0.00 in0.0 mm 0.01 in0.3 mm
02:35 AM 55.5°F13.1°C 52.3°F11.3°C 89% 6.7 mph ESE10.8 kmh ESE 13.4 mph21.6 kmh 29.60 in1002.4 mb 0.00 in0.0 mm 0.00 in0.0 mm 0.01 in0.3 mm
02:40 AM 55.5°F13.1°C 52.3°F11.3°C 89% 6.7 mph ESE10.8 kmh ESE 13.4 mph21.6 kmh 29.60 in1002.4 mb 0.00 in0.0 mm 0.00 in0.0 mm 0.01 in0.3 mm
02:45 AM 55.5°F13.1°C 52.3°F11.3°C 89% 6.3 mph ESE10.1 kmh ESE 12.5 mph20.1 kmh 29.60 in1002.4 mb 0.00 in0.0 mm 0.00 in0.0 mm 0.01 in0.3 mm
02:50 AM 55.4°F13.0°C 52.6°F11.4°C 90% 6.3 mph E10.1 kmh E 10.8 mph17.4 kmh 29.60 in1002.4 mb 0.00 in0.0 mm 0.00 in0.0 mm 0.01 in0.3 mm
02:55 AM 55.4°F13.0°C 52.6°F11.4°C 90% 6.3 mph E10.1 kmh E 10.8 mph17.4 kmh 29.60 in1002.4 mb 0.00 in0.0 mm 0.00 in0.0 mm 0.01 in0.3 mm
03:00 AM 55.4°F13.0°C 52.6°F11.4°C 90% 5.8 mph E9.3 kmh E 13.0 mph20.9 kmh 29.60 in1002.4 mb 0.00 in0.0 mm 0.00 in0.0 mm 0.01 in0.3 mm
03:05 AM 55.4°F13.0°C 52.6°F11.4°C 90% 6.3 mph E10.1 kmh E 13.9 mph22.4 kmh 29.59 in1002.0 mb 0.00 in0.0 mm 0.00 in0.0 mm 0.01 in0.3 mm
03:10 AM 55.2°F12.9°C 52.4°F11.3°C 90% 6.7 mph E10.8 kmh E 13.9 mph22.4 kmh 29.59 in1002.0 mb 0.00 in0.0 mm 0.00 in0.0 mm 0.01 in0.3 mm
03:15 AM 55.0°F12.8°C 52.5°F11.4°C 91% 6.7 mph E10.8 kmh E 12.5 mph20.1 kmh 29.59 in1002.0 mb 0.00 in0.0 mm 0.00 in0.0 mm 0.01 in0.3 mm
03:20 AM 55.0°F12.8°C 52.5°F11.4°C 91% 5.8 mph E9.3 kmh E 12.5 mph20.1 kmh 29.59 in1002.0 mb 0.00 in0.0 mm 0.00 in0.0 mm 0.01 in0.3 mm
03:25 AM 55.0°F12.8°C 52.5°F11.4°C 91% 5.8 mph ESE9.3 kmh ESE 12.5 mph20.1 kmh 29.59 in1002.0 mb 0.00 in0.0 mm 0.00 in0.0 mm 0.01 in0.3 mm
03:30 AM 54.8°F12.7°C 52.6°F11.4°C 92% 5.4 mph E8.7 kmh E 10.8 mph17.4 kmh 29.59 in1002.0 mb 0.00 in0.0 mm 0.00 in0.0 mm 0.01 in0.3 mm
03:35 AM 54.8°F12.7°C 52.6°F11.4°C 92% 5.4 mph E8.7 kmh E 10.8 mph17.4 kmh 29.59 in1002.0 mb 0.00 in0.0 mm 0.00 in0.0 mm 0.01 in0.3 mm
03:40 AM 54.6°F12.6°C 52.4°F11.3°C 92% 5.4 mph ESE8.7 kmh ESE 10.3 mph16.6 kmh 29.58 in1001.7 mb 0.00 in0.0 mm 0.00 in0.0 mm 0.01 in0.3 mm
03:45 AM 54.6°F12.6°C 52.4°F11.3°C 92% 5.4 mph ESE8.7 kmh ESE 10.3 mph16.6 kmh 29.59 in1002.0 mb 0.00 in0.0 mm 0.00 in0.0 mm 0.01 in0.3 mm
03:50 AM 54.6°F12.6°C 52.4°F11.3°C 92% 4.9 mph ESE7.9 kmh ESE 8.5 mph13.7 kmh 29.58 in1001.7 mb 0.00 in0.0 mm 0.00 in0.0 mm 0.01 in0.3 mm
03:55 AM 54.6°F12.6°C 52.4°F11.3°C 92% 5.4 mph E8.7 kmh E 9.4 mph15.1 kmh 29.58 in1001.7 mb 0.00 in0.0 mm 0.00 in0.0 mm 0.01 in0.3 mm
04:00 AM 54.6°F12.6°C 52.1°F11.2°C 91% 6.3 mph E10.1 kmh E 10.8 mph17.4 kmh 29.58 in1001.7 mb 0.00 in0.0 mm 0.00 in0.0 mm 0.01 in0.3 mm
04:05 AM 54.6°F12.6°C 52.4°F11.3°C 92% 6.3 mph ESE10.1 kmh ESE 11.6 mph18.7 kmh 29.58 in1001.7 mb 0.00 in0.0 mm 0.00 in0.0 mm 0.01 in0.3 mm
04:10 AM 54.6°F12.6°C 52.4°F11.3°C 92% 5.8 mph ESE9.3 kmh ESE 11.6 mph18.7 kmh 29.58 in1001.7 mb 0.00 in0.0 mm 0.00 in0.0 mm 0.01 in0.3 mm
04:15 AM 54.8°F12.7°C 52.6°F11.4°C 92% 5.8 mph ESE9.3 kmh ESE 11.2 mph18.0 kmh 29.58 in1001.7 mb 0.00 in0.0 mm 0.00 in0.0 mm 0.01 in0.3 mm
04:20 AM 54.8°F12.7°C 52.3°F11.3°C 91% 5.8 mph E9.3 kmh E 10.3 mph16.6 kmh 29.58 in1001.7 mb 0.00 in0.0 mm 0.00 in0.0 mm 0.01 in0.3 mm
04:25 AM 54.8°F12.7°C 52.3°F11.3°C 91% 5.4 mph E8.7 kmh E 9.0 mph14.5 kmh 29.58 in1001.7 mb 0.00 in0.0 mm 0.00 in0.0 mm 0.01 in0.3 mm
04:30 AM 54.8°F12.7°C 52.3°F11.3°C 91% 5.4 mph ESE8.7 kmh ESE 9.0 mph14.5 kmh 29.58 in1001.7 mb 0.00 in0.0 mm 0.00 in0.0 mm 0.01 in0.3 mm
04:35 AM 54.8°F12.7°C 52.3°F11.3°C 91% 5.4 mph E8.7 kmh E 8.1 mph13.0 kmh 29.58 in1001.7 mb 0.00 in0.0 mm 0.00 in0.0 mm 0.01 in0.3 mm
04:40 AM 54.8°F12.7°C 52.3°F11.3°C 91% 5.4 mph E8.7 kmh E 9.4 mph15.1 kmh 29.58 in1001.7 mb 0.01 in0.3 mm 0.12 in3.0 mm 0.02 in0.5 mm
04:45 AM 54.8°F12.7°C 52.3°F11.3°C 91% 5.4 mph ESE8.7 kmh ESE 9.4 mph15.1 kmh 29.58 in1001.7 mb 0.01 in0.3 mm 0.00 in0.0 mm 0.02 in0.5 mm
04:50 AM 55.0°F12.8°C 52.2°F11.2°C 90% 5.4 mph ESE8.7 kmh ESE 12.5 mph20.1 kmh 29.58 in1001.7 mb 0.01 in0.3 mm 0.00 in0.0 mm 0.02 in0.5 mm
04:55 AM 54.8°F12.7°C 52.0°F11.1°C 90% 5.4 mph E8.7 kmh E 12.5 mph20.1 kmh 29.58 in1001.7 mb 0.01 in0.3 mm 0.00 in0.0 mm 0.02 in0.5 mm
05:00 AM 54.6°F12.6°C 52.1°F11.2°C 91% 4.0 mph E6.4 kmh E 7.6 mph12.2 kmh 29.58 in1001.7 mb 0.01 in0.3 mm 0.00 in0.0 mm 0.02 in0.5 mm
05:05 AM 54.6°F12.6°C 52.1°F11.2°C 91% 4.0 mph ESE6.4 kmh ESE 7.2 mph11.6 kmh 29.58 in1001.7 mb 0.01 in0.3 mm 0.00 in0.0 mm 0.02 in0.5 mm
05:10 AM 54.6°F12.6°C 52.1°F11.2°C 91% 4.0 mph ESE6.4 kmh ESE 8.1 mph13.0 kmh 29.58 in1001.7 mb 0.01 in0.3 mm 0.00 in0.0 mm 0.02 in0.5 mm
05:15 AM 54.6°F12.6°C 52.1°F11.2°C 91% 4.0 mph E6.4 kmh E 8.1 mph13.0 kmh 29.58 in1001.7 mb 0.01 in0.3 mm 0.00 in0.0 mm 0.02 in0.5 mm
05:20 AM 54.6°F12.6°C 52.1°F11.2°C 91% 3.6 mph ESE5.8 kmh ESE 6.3 mph10.1 kmh 29.59 in1002.0 mb 0.01 in0.3 mm 0.00 in0.0 mm 0.02 in0.5 mm
05:25 AM 54.6°F12.6°C 52.1°F11.2°C 91% 3.6 mph SE5.8 kmh SE 7.2 mph11.6 kmh 29.59 in1002.0 mb 0.01 in0.3 mm 0.00 in0.0 mm 0.02 in0.5 mm
05:30 AM 54.6°F12.6°C 52.1°F11.2°C 91% 3.6 mph ESE5.8 kmh ESE 7.6 mph12.2 kmh 29.58 in1001.7 mb 0.01 in0.3 mm 0.00 in0.0 mm 0.02 in0.5 mm
05:35 AM 54.6°F12.6°C 52.1°F11.2°C 91% 4.5 mph E7.2 kmh E 7.6 mph12.2 kmh 29.58 in1001.7 mb 0.01 in0.3 mm 0.00 in0.0 mm 0.02 in0.5 mm
05:40 AM 54.5°F12.5°C 52.0°F11.1°C 91% 4.0 mph E6.4 kmh E 7.2 mph11.6 kmh 29.59 in1002.0 mb 0.00 in0.0 mm 0.00 in0.0 mm 0.02 in0.5 mm
05:45 AM 54.5°F12.5°C 52.0°F11.1°C 91% 3.6 mph E5.8 kmh E 6.3 mph10.1 kmh 29.59 in1002.0 mb 0.00 in0.0 mm 0.00 in0.0 mm 0.02 in0.5 mm
05:50 AM 54.5°F12.5°C 52.0°F11.1°C 91% 3.6 mph E5.8 kmh E 5.8 mph9.3 kmh 29.59 in1002.0 mb 0.00 in0.0 mm 0.00 in0.0 mm 0.02 in0.5 mm
05:55 AM 54.3°F12.4°C 52.1°F11.2°C 92% 3.6 mph E5.8 kmh E 5.8 mph9.3 kmh 29.59 in1002.0 mb 0.00 in0.0 mm 0.00 in0.0 mm 0.02 in0.5 mm
06:00 AM 54.3°F12.4°C 52.1°F11.2°C 92% 3.1 mph ESE5.0 kmh ESE 4.5 mph7.2 kmh 29.59 in1002.0 mb 0.00 in0.0 mm 0.00 in0.0 mm 0.02 in0.5 mm
06:05 AM 54.3°F12.4°C 52.1°F11.2°C 92% 2.7 mph ESE4.3 kmh ESE 4.9 mph7.9 kmh 29.59 in1002.0 mb 0.00 in0.0 mm 0.00 in0.0 mm 0.02 in0.5 mm
06:10 AM 54.3°F12.4°C 52.1°F11.2°C 92% 2.7 mph SE4.3 kmh SE 4.9 mph7.9 kmh 29.59 in1002.0 mb 0.00 in0.0 mm 0.00 in0.0 mm 0.02 in0.5 mm
06:15 AM 54.1°F12.3°C 52.2°F11.2°C 93% 2.2 mph ESE3.5 kmh ESE 4.0 mph6.4 kmh 29.59 in1002.0 mb 0.00 in0.0 mm 0.00 in0.0 mm 0.02 in0.5 mm
06:20 AM 54.1°F12.3°C 52.2°F11.2°C 93% 1.8 mph ESE2.9 kmh ESE 4.0 mph6.4 kmh 29.60 in1002.4 mb 0.00 in0.0 mm 0.00 in0.0 mm 0.02 in0.5 mm
06:25 AM 53.9°F12.2°C 52.0°F11.1°C 93% 1.8 mph SE2.9 kmh SE 4.5 mph7.2 kmh 29.60 in1002.4 mb 0.01 in0.3 mm 0.12 in3.0 mm 0.02 in0.5 mm
06:30 AM 53.9°F12.2°C 52.0°F11.1°C 93% 2.2 mph SE3.5 kmh SE 4.5 mph7.2 kmh 29.60 in1002.4 mb 0.01 in0.3 mm 0.00 in0.0 mm 0.02 in0.5 mm
06:35 AM 53.9°F12.2°C 52.0°F11.1°C 93% 2.2 mph SE3.5 kmh SE 4.5 mph7.2 kmh 29.60 in1002.4 mb 0.01 in0.3 mm 0.00 in0.0 mm 0.02 in0.5 mm
06:40 AM 53.9°F12.2°C 52.0°F11.1°C 93% 2.2 mph SE3.5 kmh SE 4.5 mph7.2 kmh 29.60 in1002.4 mb 0.01 in0.3 mm 0.00 in0.0 mm 0.02 in0.5 mm
06:45 AM 53.9°F12.2°C 52.3°F11.3°C 94% 2.7 mph ESE4.3 kmh ESE 4.0 mph6.4 kmh 29.60 in1002.4 mb 0.01 in0.3 mm 0.00 in0.0 mm 0.02 in0.5 mm
06:50 AM 53.7°F12.1°C 52.1°F11.2°C 94% 3.1 mph ESE5.0 kmh ESE 4.0 mph6.4 kmh 29.60 in1002.4 mb 0.02 in0.5 mm 0.12 in3.0 mm 0.03 in0.8 mm
06:55 AM 53.7°F12.1°C 52.1°F11.2°C 94% 3.1 mph ESE5.0 kmh ESE 4.9 mph7.9 kmh 29.60 in1002.4 mb 0.02 in0.5 mm 0.00 in0.0 mm 0.03 in0.8 mm
07:00 AM 53.7°F12.1°C 52.1°F11.2°C 94% 3.1 mph ESE5.0 kmh ESE 4.9 mph7.9 kmh 29.60 in1002.4 mb 0.02 in0.5 mm 0.00 in0.0 mm 0.03 in0.8 mm
07:05 AM 53.9°F12.2°C 52.3°F11.3°C 94% 3.6 mph SE5.8 kmh SE 6.3 mph10.1 kmh 29.60 in1002.4 mb 0.02 in0.5 mm 0.00 in0.0 mm 0.04 in1.0 mm
07:10 AM 53.9°F12.2°C 52.3°F11.3°C 94% 4.5 mph SE7.2 kmh SE 6.7 mph10.8 kmh 29.60 in1002.4 mb 0.02 in0.5 mm 0.00 in0.0 mm 0.04 in1.0 mm
07:15 AM 53.9°F12.2°C 52.3°F11.3°C 94% 4.0 mph SE6.4 kmh SE 7.2 mph11.6 kmh 29.61 in1002.7 mb 0.02 in0.5 mm 0.00 in0.0 mm 0.04 in1.0 mm
07:20 AM 53.7°F12.1°C 52.1°F11.2°C 94% 4.0 mph SE6.4 kmh SE 7.2 mph11.6 kmh 29.61 in1002.7 mb 0.02 in0.5 mm 0.00 in0.0 mm 0.04 in1.0 mm
07:25 AM 53.7°F12.1°C 52.1°F11.2°C 94% 4.0 mph ESE6.4 kmh ESE 6.7 mph10.8 kmh 29.61 in1002.7 mb 0.02 in0.5 mm 0.00 in0.0 mm 0.04 in1.0 mm
07:30 AM 53.7°F12.1°C 52.1°F11.2°C 94% 4.0 mph ESE6.4 kmh ESE 6.7 mph10.8 kmh 29.61 in1002.7 mb 0.02 in0.5 mm 0.00 in0.0 mm 0.04 in1.0 mm
07:35 AM 53.7°F12.1°C 52.3°F11.3°C 95% 3.6 mph ESE5.8 kmh ESE 5.8 mph9.3 kmh 29.61 in1002.7 mb 0.02 in0.5 mm 0.00 in0.0 mm 0.05 in1.3 mm
07:40 AM 53.7°F12.1°C 52.3°F11.3°C 95% 3.1 mph ESE5.0 kmh ESE 4.9 mph7.9 kmh 29.61 in1002.7 mb 0.02 in0.5 mm 0.00 in0.0 mm 0.05 in1.3 mm
07:45 AM 53.7°F12.1°C 52.3°F11.3°C 95% 2.2 mph E3.5 kmh E 4.9 mph7.9 kmh 29.61 in1002.7 mb 0.02 in0.5 mm 0.00 in0.0 mm 0.05 in1.3 mm
07:50 AM 53.7°F12.1°C 52.3°F11.3°C 95% 0.9 mph E1.4 kmh E 2.7 mph4.3 kmh 29.61 in1002.7 mb 0.02 in0.5 mm 0.00 in0.0 mm 0.05 in1.3 mm
07:55 AM 53.7°F12.1°C 52.3°F11.3°C 95% 0.4 mph ENE0.6 kmh ENE 2.2 mph3.5 kmh 29.61 in1002.7 mb 0.02 in0.5 mm 0.00 in0.0 mm 0.05 in1.3 mm
08:00 AM 53.6°F12.0°C 52.2°F11.2°C 95% 0.4 mph NE0.6 kmh NE 2.2 mph3.5 kmh 29.61 in1002.7 mb 0.02 in0.5 mm 0.00 in0.0 mm 0.05 in1.3 mm
08:05 AM 53.6°F12.0°C 52.2°F11.2°C 95% 0.4 mph NE0.6 kmh NE 2.2 mph3.5 kmh 29.62 in1003.0 mb 0.01 in0.3 mm 0.00 in0.0 mm 0.05 in1.3 mm
08:10 AM 53.6°F12.0°C 52.2°F11.2°C 95% 0.9 mph E1.4 kmh E 5.8 mph9.3 kmh 29.62 in1003.0 mb 0.01 in0.3 mm 0.00 in0.0 mm 0.05 in1.3 mm
08:15 AM 53.6°F12.0°C 52.2°F11.2°C 95% 1.8 mph E2.9 kmh E 5.8 mph9.3 kmh 29.62 in1003.0 mb 0.02 in0.5 mm 0.12 in3.0 mm 0.06 in1.5 mm
08:20 AM 53.7°F12.1°C 52.3°F11.3°C 95% 3.1 mph ESE5.0 kmh ESE 4.5 mph7.2 kmh 29.62 in1003.0 mb 0.02 in0.5 mm 0.00 in0.0 mm 0.06 in1.5 mm
08:25 AM 53.7°F12.1°C 52.6°F11.4°C 96% 3.1 mph SE5.0 kmh SE 4.5 mph7.2 kmh 29.62 in1003.0 mb 0.02 in0.5 mm 0.00 in0.0 mm 0.06 in1.5 mm
08:30 AM 53.7°F12.1°C 52.6°F11.4°C 96% 2.2 mph SE3.5 kmh SE 4.5 mph7.2 kmh 29.62 in1003.0 mb 0.02 in0.5 mm 0.00 in0.0 mm 0.06 in1.5 mm
08:35 AM 53.7°F12.1°C 52.6°F11.4°C 96% 1.8 mph SE2.9 kmh SE 3.6 mph5.8 kmh 29.62 in1003.0 mb 0.01 in0.3 mm 0.00 in0.0 mm 0.06 in1.5 mm
08:40 AM 54.1°F12.3°C 53.0°F11.7°C 96% 1.3 mph E2.1 kmh E 3.1 mph5.0 kmh 29.62 in1003.0 mb 0.01 in0.3 mm 0.00 in0.0 mm 0.06 in1.5 mm
08:45 AM 53.9°F12.2°C 52.8°F11.6°C 96% 1.8 mph ESE2.9 kmh ESE 4.5 mph7.2 kmh 29.62 in1003.0 mb 0.01 in0.3 mm 0.00 in0.0 mm 0.06 in1.5 mm
08:50 AM 54.1°F12.3°C 53.0°F11.7°C 96% 2.2 mph SE3.5 kmh SE 4.5 mph7.2 kmh 29.62 in1003.0 mb 0.01 in0.3 mm 0.00 in0.0 mm 0.06 in1.5 mm
08:55 AM 54.1°F12.3°C 53.0°F11.7°C 96% 2.7 mph SE4.3 kmh SE 4.5 mph7.2 kmh 29.62 in1003.0 mb 0.01 in0.3 mm 0.00 in0.0 mm 0.06 in1.5 mm
09:00 AM 54.5°F12.5°C 53.4°F11.9°C 96% 1.3 mph ESE2.1 kmh ESE 3.6 mph5.8 kmh 29.63 in1003.4 mb 0.01 in0.3 mm 0.00 in0.0 mm 0.06 in1.5 mm
09:05 AM 54.3°F12.4°C 52.9°F11.6°C 95% 1.3 mph ESE2.1 kmh ESE 4.0 mph6.4 kmh 29.62 in1003.0 mb 0.01 in0.3 mm 0.00 in0.0 mm 0.06 in1.5 mm
09:10 AM 54.6°F12.6°C 53.2°F11.8°C 95% 1.3 mph E2.1 kmh E 4.0 mph6.4 kmh 29.63 in1003.4 mb 0.01 in0.3 mm 0.00 in0.0 mm 0.06 in1.5 mm
09:15 AM 54.5°F12.5°C 53.1°F11.7°C 95% 0.4 mph ENE0.6 kmh ENE 2.7 mph4.3 kmh 29.63 in1003.4 mb 0.00 in0.0 mm 0.00 in0.0 mm 0.06 in1.5 mm
09:20 AM 54.6°F12.6°C 53.2°F11.8°C 95% 0.9 mph NE1.4 kmh NE 3.6 mph5.8 kmh 29.64 in1003.7 mb 0.00 in0.0 mm 0.00 in0.0 mm 0.06 in1.5 mm
09:25 AM 54.6°F12.6°C 53.2°F11.8°C 95% 0.9 mph NE1.4 kmh NE 3.6 mph5.8 kmh 29.63 in1003.4 mb 0.00 in0.0 mm 0.00 in0.0 mm 0.06 in1.5 mm
09:30 AM 54.6°F12.6°C 53.2°F11.8°C 95% 0.4 mph NE0.6 kmh NE 2.2 mph3.5 kmh 29.64 in1003.7 mb 0.00 in0.0 mm 0.00 in0.0 mm 0.06 in1.5 mm
09:35 AM 54.6°F12.6°C 53.2°F11.8°C 95% 1.3 mph E2.1 kmh E 2.2 mph3.5 kmh 29.63 in1003.4 mb 0.00 in0.0 mm 0.00 in0.0 mm 0.06 in1.5 mm
09:40 AM 55.0°F12.8°C 53.6°F12.0°C 95% 1.3 mph E2.1 kmh E 2.7 mph4.3 kmh 29.63 in1003.4 mb 0.00 in0.0 mm 0.00 in0.0 mm 0.06 in1.5 mm
09:45 AM 55.0°F12.8°C 53.6°F12.0°C 95% 0.9 mph E1.4 kmh E 2.7 mph4.3 kmh 29.63 in1003.4 mb 0.00 in0.0 mm 0.00 in0.0 mm 0.06 in1.5 mm
09:50 AM 55.0°F12.8°C 53.6°F12.0°C 95% 0.4 mph E0.6 kmh E 3.6 mph5.8 kmh 29.64 in1003.7 mb 0.00 in0.0 mm 0.00 in0.0 mm 0.06 in1.5 mm
09:55 AM 55.0°F12.8°C 53.6°F12.0°C 95% 1.8 mph E2.9 kmh E 5.4 mph8.7 kmh 29.64 in1003.7 mb 0.00 in0.0 mm 0.00 in0.0 mm 0.06 in1.5 mm
10:00 AM 55.4°F13.0°C 54.0°F12.2°C 95% 1.8 mph E2.9 kmh E 5.4 mph8.7 kmh 29.64 in1003.7 mb 0.00 in0.0 mm 0.00 in0.0 mm 0.06 in1.5 mm
10:05 AM 55.4°F13.0°C 54.0°F12.2°C 95% 1.8 mph ENE2.9 kmh ENE 4.9 mph7.9 kmh 29.64 in1003.7 mb 0.00 in0.0 mm 0.00 in0.0 mm 0.06 in1.5 mm
10:10 AM 55.2°F12.9°C 53.8°F12.1°C 95% 2.7 mph NE4.3 kmh NE 6.7 mph10.8 kmh 29.64 in1003.7 mb 0.00 in0.0 mm 0.00 in0.0 mm 0.06 in1.5 mm
10:15 AM 55.4°F13.0°C 54.0°F12.2°C 95% 2.2 mph NE3.5 kmh NE 6.7 mph10.8 kmh 29.64 in1003.7 mb 0.00 in0.0 mm 0.00 in0.0 mm 0.06 in1.5 mm
10:20 AM 55.5°F13.1°C 54.1°F12.3°C 95% 1.3 mph ENE2.1 kmh ENE 3.6 mph5.8 kmh 29.64 in1003.7 mb 0.00 in0.0 mm 0.00 in0.0 mm 0.06 in1.5 mm
10:25 AM 55.5°F13.1°C 54.4°F12.4°C 96% 0.9 mph E1.4 kmh E 3.1 mph5.0 kmh 29.65 in1004.1 mb 0.00 in0.0 mm 0.00 in0.0 mm 0.06 in1.5 mm
10:30 AM 55.5°F13.1°C 54.4°F12.4°C 96% 0.9 mph NE1.4 kmh NE 3.1 mph5.0 kmh 29.65 in1004.1 mb 0.00 in0.0 mm 0.00 in0.0 mm 0.06 in1.5 mm
10:35 AM 55.9°F13.3°C 54.8°F12.7°C 96% 0.4 mph NE0.6 kmh NE 3.1 mph5.0 kmh 29.65 in1004.1 mb 0.01 in0.3 mm 0.12 in3.0 mm 0.06 in1.5 mm
10:40 AM 55.9°F13.3°C 54.5°F12.5°C 95% 1.3 mph NE2.1 kmh NE 4.9 mph7.9 kmh 29.65 in1004.1 mb 0.01 in0.3 mm 0.00 in0.0 mm 0.06 in1.5 mm
10:45 AM 55.9°F13.3°C 54.5°F12.5°C 95% 1.8 mph NE2.9 kmh NE 4.9 mph7.9 kmh 29.65 in1004.1 mb 0.01 in0.3 mm 0.00 in0.0 mm 0.06 in1.5 mm
10:50 AM 55.7°F13.2°C 54.6°F12.6°C 96% 1.3 mph NE2.1 kmh NE 4.0 mph6.4 kmh 29.65 in1004.1 mb 0.01 in0.3 mm 0.00 in0.0 mm 0.06 in1.5 mm
10:55 AM 55.9°F13.3°C 54.8°F12.7°C 96% 0.4 mph NE0.6 kmh NE 2.7 mph4.3 kmh 29.65 in1004.1 mb 0.02 in0.5 mm 0.12 in3.0 mm 0.07 in1.8 mm
11:00 AM 55.7°F13.2°C 54.6°F12.6°C 96% Calm Calm -- 29.65 in1004.1 mb 0.02 in0.5 mm 0.00 in0.0 mm 0.07 in1.8 mm
11:05 AM 55.7°F13.2°C 54.6°F12.6°C 96% 0.4 mph NNE0.6 kmh NNE 6.3 mph10.1 kmh 29.65 in1004.1 mb 0.02 in0.5 mm 0.00 in0.0 mm 0.08 in2.0 mm
11:10 AM 55.4°F13.0°C 54.3°F12.4°C 96% 3.1 mph N5.0 kmh N 11.6 mph18.7 kmh 29.65 in1004.1 mb 0.02 in0.5 mm 0.00 in0.0 mm 0.08 in2.0 mm
11:15 AM 55.5°F13.1°C 54.4°F12.4°C 96% 5.4 mph N8.7 kmh N 11.6 mph18.7 kmh 29.65 in1004.1 mb 0.02 in0.5 mm 0.00 in0.0 mm 0.08 in2.0 mm
11:20 AM 55.9°F13.3°C 54.8°F12.7°C 96% 4.5 mph N7.2 kmh N 11.6 mph18.7 kmh 29.64 in1003.7 mb 0.03 in0.8 mm 0.12 in3.0 mm 0.09 in2.3 mm
11:25 AM 55.9°F13.3°C 54.8°F12.7°C 96% 3.6 mph N5.8 kmh N 9.4 mph15.1 kmh 29.64 in1003.7 mb 0.03 in0.8 mm 0.00 in0.0 mm 0.09 in2.3 mm
11:30 AM 55.5°F13.1°C 54.4°F12.4°C 96% 3.6 mph NNW5.8 kmh NNW 9.4 mph15.1 kmh 29.64 in1003.7 mb 0.04 in1.0 mm 0.12 in3.0 mm 0.09 in2.3 mm
11:35 AM 55.7°F13.2°C 54.6°F12.6°C 96% 3.1 mph NNW5.0 kmh NNW 6.7 mph10.8 kmh 29.64 in1003.7 mb 0.03 in0.8 mm 0.00 in0.0 mm 0.09 in2.3 mm
11:40 AM 55.7°F13.2°C 54.6°F12.6°C 96% 2.7 mph NNW4.3 kmh NNW 4.9 mph7.9 kmh 29.64 in1003.7 mb 0.03 in0.8 mm 0.00 in0.0 mm 0.09 in2.3 mm
11:45 AM 55.9°F13.3°C 54.8°F12.7°C 96% 2.7 mph NNW4.3 kmh NNW 4.9 mph7.9 kmh 29.64 in1003.7 mb 0.04 in1.0 mm 0.12 in3.0 mm 0.10 in2.5 mm
11:50 AM 55.5°F13.1°C 54.4°F12.4°C 96% 2.2 mph NW3.5 kmh NW 4.5 mph7.2 kmh 29.64 in1003.7 mb 0.03 in0.8 mm 0.00 in0.0 mm 0.10 in2.5 mm
11:55 AM 55.5°F13.1°C 54.4°F12.4°C 96% 2.7 mph NW4.3 kmh NW 6.3 mph10.1 kmh 29.64 in1003.7 mb 0.04 in1.0 mm 0.12 in3.0 mm 0.11 in2.8 mm
12:00 PM 55.5°F13.1°C 54.4°F12.4°C 96% 3.1 mph NW5.0 kmh NW 7.6 mph12.2 kmh 29.64 in1003.7 mb 0.04 in1.0 mm 0.00 in0.0 mm 0.11 in2.8 mm
12:05 PM 55.5°F13.1°C 54.4°F12.4°C 96% 3.6 mph NW5.8 kmh NW 7.6 mph12.2 kmh 29.64 in1003.7 mb 0.03 in0.8 mm 0.00 in0.0 mm 0.11 in2.8 mm
12:10 PM 55.4°F13.0°C 54.3°F12.4°C 96% 3.1 mph NW5.0 kmh NW 7.6 mph12.2 kmh 29.64 in1003.7 mb 0.04 in1.0 mm 0.12 in3.0 mm 0.12 in3.0 mm
12:15 PM 55.4°F13.0°C 54.3°F12.4°C 96% 3.6 mph NW5.8 kmh NW 7.6 mph12.2 kmh 29.64 in1003.7 mb 0.03 in0.8 mm 0.00 in0.0 mm 0.12 in3.0 mm
12:20 PM 55.5°F13.1°C 54.4°F12.4°C 96% 4.0 mph NW6.4 kmh NW 7.2 mph11.6 kmh 29.64 in1003.7 mb 0.03 in0.8 mm 0.00 in0.0 mm 0.12 in3.0 mm
12:25 PM 55.4°F13.0°C 54.3°F12.4°C 96% 4.0 mph NW6.4 kmh NW 8.1 mph13.0 kmh 29.64 in1003.7 mb 0.04 in1.0 mm 0.12 in3.0 mm 0.13 in3.3 mm
12:30 PM 55.4°F13.0°C 54.3°F12.4°C 96% 4.0 mph NW6.4 kmh NW 8.1 mph13.0 kmh 29.64 in1003.7 mb 0.03 in0.8 mm 0.00 in0.0 mm 0.13 in3.3 mm
12:35 PM 55.0°F12.8°C 54.2°F12.3°C 97% 4.5 mph NW7.2 kmh NW 9.4 mph15.1 kmh 29.64 in1003.7 mb 0.03 in0.8 mm 0.00 in0.0 mm 0.13 in3.3 mm
12:40 PM 55.2°F12.9°C 54.4°F12.4°C 97% 4.5 mph NW7.2 kmh NW 9.4 mph15.1 kmh 29.64 in1003.7 mb 0.04 in1.0 mm 0.12 in3.0 mm 0.13 in3.3 mm
12:45 PM 55.4°F13.0°C 54.6°F12.6°C 97% 4.5 mph NW7.2 kmh NW 9.0 mph14.5 kmh 29.64 in1003.7 mb 0.03 in0.8 mm 0.00 in0.0 mm 0.13 in3.3 mm
12:50 PM 55.4°F13.0°C 54.6°F12.6°C 97% 4.9 mph NW7.9 kmh NW 9.4 mph15.1 kmh 29.64 in1003.7 mb 0.04 in1.0 mm 0.12 in3.0 mm 0.14 in3.6 mm
12:55 PM 55.2°F12.9°C 54.4°F12.4°C 97% 4.5 mph NW7.2 kmh NW 9.4 mph15.1 kmh 29.64 in1003.7 mb 0.04 in1.0 mm 0.00 in0.0 mm 0.15 in3.8 mm
01:00 PM 55.4°F13.0°C 54.6°F12.6°C 97% 3.6 mph NW5.8 kmh NW 8.1 mph13.0 kmh 29.64 in1003.7 mb 0.04 in1.0 mm 0.00 in0.0 mm 0.15 in3.8 mm
01:05 PM 55.4°F13.0°C 54.6°F12.6°C 97% 3.6 mph W5.8 kmh W 7.2 mph11.6 kmh 29.64 in1003.7 mb 0.04 in1.0 mm 0.00 in0.0 mm 0.15 in3.8 mm
01:10 PM 55.4°F13.0°C 54.6°F12.6°C 97% 4.0 mph WNW6.4 kmh WNW 7.2 mph11.6 kmh 29.64 in1003.7 mb 0.04 in1.0 mm 0.00 in0.0 mm 0.16 in4.1 mm
01:15 PM 55.4°F13.0°C 54.6°F12.6°C 97% 4.5 mph WNW7.2 kmh WNW 10.3 mph16.6 kmh 29.64 in1003.7 mb 0.04 in1.0 mm 0.00 in0.0 mm 0.16 in4.1 mm
01:20 PM 55.4°F13.0°C 54.6°F12.6°C 97% 4.5 mph WNW7.2 kmh WNW 10.3 mph16.6 kmh 29.64 in1003.7 mb 0.05 in1.3 mm 0.12 in3.0 mm 0.17 in4.3 mm
01:25 PM 55.2°F12.9°C 54.4°F12.4°C 97% 4.9 mph NW7.9 kmh NW 8.5 mph13.7 kmh 29.65 in1004.1 mb 0.04 in1.0 mm 0.00 in0.0 mm 0.17 in4.3 mm
01:30 PM 55.2°F12.9°C 54.4°F12.4°C 97% 4.9 mph WNW7.9 kmh WNW 8.1 mph13.0 kmh 29.64 in1003.7 mb 0.04 in1.0 mm 0.00 in0.0 mm 0.17 in4.3 mm
01:35 PM 55.0°F12.8°C 54.2°F12.3°C 97% 4.9 mph WNW7.9 kmh WNW 8.5 mph13.7 kmh 29.65 in1004.1 mb 0.05 in1.3 mm 0.12 in3.0 mm 0.17 in4.3 mm
01:40 PM 55.0°F12.8°C 54.2°F12.3°C 97% 4.9 mph WNW7.9 kmh WNW 8.5 mph13.7 kmh 29.65 in1004.1 mb 0.04 in1.0 mm 0.00 in0.0 mm 0.17 in4.3 mm
01:45 PM 55.4°F13.0°C 54.6°F12.6°C 97% 4.0 mph WNW6.4 kmh WNW 6.3 mph10.1 kmh 29.65 in1004.1 mb 0.04 in1.0 mm 0.00 in0.0 mm 0.18 in4.6 mm
01:50 PM 55.2°F12.9°C 54.4°F12.4°C 97% 4.0 mph WNW6.4 kmh WNW 6.3 mph10.1 kmh 29.65 in1004.1 mb 0.04 in1.0 mm 0.00 in0.0 mm 0.18 in4.6 mm
01:55 PM 55.2°F12.9°C 54.4°F12.4°C 97% 3.1 mph W5.0 kmh W 6.3 mph10.1 kmh 29.65 in1004.1 mb 0.03 in0.8 mm 0.00 in0.0 mm 0.18 in4.6 mm
02:00 PM 55.2°F12.9°C 54.4°F12.4°C 97% 3.1 mph W5.0 kmh W 9.0 mph14.5 kmh 29.65 in1004.1 mb 0.03 in0.8 mm 0.00 in0.0 mm 0.18 in4.6 mm
02:05 PM 55.5°F13.1°C 54.7°F12.6°C 97% 3.6 mph W5.8 kmh W 9.0 mph14.5 kmh 29.66 in1004.4 mb 0.03 in0.8 mm 0.00 in0.0 mm 0.18 in4.6 mm
02:10 PM 55.5°F13.1°C 54.7°F12.6°C 97% 2.2 mph W3.5 kmh W 6.7 mph10.8 kmh 29.66 in1004.4 mb 0.02 in0.5 mm 0.00 in0.0 mm 0.18 in4.6 mm
02:15 PM 55.7°F13.2°C 54.9°F12.7°C 97% 2.7 mph W4.3 kmh W 6.7 mph10.8 kmh 29.66 in1004.4 mb 0.02 in0.5 mm 0.00 in0.0 mm 0.18 in4.6 mm
02:20 PM 55.4°F13.0°C 54.6°F12.6°C 97% 3.6 mph W5.8 kmh W 7.2 mph11.6 kmh 29.66 in1004.4 mb 0.02 in0.5 mm 0.00 in0.0 mm 0.18 in4.6 mm
02:25 PM 55.4°F13.0°C 54.6°F12.6°C 97% 2.7 mph WNW4.3 kmh WNW 7.2 mph11.6 kmh 29.65 in1004.1 mb 0.02 in0.5 mm 0.00 in0.0 mm 0.18 in4.6 mm
02:30 PM 55.9°F13.3°C 55.1°F12.8°C 97% 2.7 mph WNW4.3 kmh WNW 5.4 mph8.7 kmh 29.66 in1004.4 mb 0.02 in0.5 mm 0.00 in0.0 mm 0.18 in4.6 mm
02:35 PM 55.7°F13.2°C 54.9°F12.7°C 97% 3.1 mph NW5.0 kmh NW 6.7 mph10.8 kmh 29.65 in1004.1 mb 0.01 in0.3 mm 0.00 in0.0 mm 0.18 in4.6 mm
02:40 PM 55.7°F13.2°C 54.6°F12.6°C 96% 4.0 mph NW6.4 kmh NW 7.2 mph11.6 kmh 29.66 in1004.4 mb 0.01 in0.3 mm 0.00 in0.0 mm 0.18 in4.6 mm
02:45 PM 55.9°F13.3°C 54.8°F12.7°C 96% 4.0 mph NW6.4 kmh NW 7.2 mph11.6 kmh 29.66 in1004.4 mb 0.00 in0.0 mm 0.00 in0.0 mm 0.18 in4.6 mm
02:50 PM 56.1°F13.4°C 55.0°F12.8°C 96% 4.0 mph WNW6.4 kmh WNW 7.2 mph11.6 kmh 29.66 in1004.4 mb 0.00 in0.0 mm 0.00 in0.0 mm 0.18 in4.6 mm
02:55 PM 56.3°F13.5°C 55.2°F12.9°C 96% 4.0 mph WNW6.4 kmh WNW 8.5 mph13.7 kmh 29.66 in1004.4 mb 0.00 in0.0 mm 0.00 in0.0 mm 0.18 in4.6 mm
03:00 PM 55.5°F13.1°C 54.4°F12.4°C 96% 4.5 mph WNW7.2 kmh WNW 9.9 mph15.9 kmh 29.66 in1004.4 mb 0.00 in0.0 mm 0.00 in0.0 mm 0.18 in4.6 mm
03:05 PM 55.7°F13.2°C 54.3°F12.4°C 95% 4.9 mph WNW7.9 kmh WNW 10.3 mph16.6 kmh 29.66 in1004.4 mb 0.00 in0.0 mm 0.00 in0.0 mm 0.18 in4.6 mm
03:10 PM 55.7°F13.2°C 54.3°F12.4°C 95% 4.5 mph WNW7.2 kmh WNW 13.4 mph21.6 kmh 29.67 in1004.7 mb 0.00 in0.0 mm 0.00 in0.0 mm 0.18 in4.6 mm
03:15 PM 55.7°F13.2°C 54.3°F12.4°C 95% 4.5 mph WNW7.2 kmh WNW 13.4 mph21.6 kmh 29.67 in1004.7 mb 0.00 in0.0 mm 0.00 in0.0 mm 0.18 in4.6 mm
03:20 PM 55.5°F13.1°C 54.1°F12.3°C 95% 4.0 mph NW6.4 kmh NW 9.0 mph14.5 kmh 29.67 in1004.7 mb 0.00 in0.0 mm 0.00 in0.0 mm 0.18 in4.6 mm
03:25 PM 55.5°F13.1°C 54.1°F12.3°C 95% 4.5 mph NW7.2 kmh NW 9.9 mph15.9 kmh 29.67 in1004.7 mb 0.00 in0.0 mm 0.00 in0.0 mm 0.18 in4.6 mm
03:30 PM 55.5°F13.1°C 54.1°F12.3°C 95% 4.5 mph WNW7.2 kmh WNW 9.9 mph15.9 kmh 29.67 in1004.7 mb 0.00 in0.0 mm 0.00 in0.0 mm 0.18 in4.6 mm
03:35 PM 55.5°F13.1°C 54.1°F12.3°C 95% 4.0 mph WNW6.4 kmh WNW 8.1 mph13.0 kmh 29.67 in1004.7 mb 0.00 in0.0 mm 0.00 in0.0 mm 0.18 in4.6 mm
03:40 PM 55.0°F12.8°C 53.6°F12.0°C 95% 5.4 mph NW8.7 kmh NW 12.5 mph20.1 kmh 29.68 in1005.1 mb 0.00 in0.0 mm 0.00 in0.0 mm 0.18 in4.6 mm
03:45 PM 54.8°F12.7°C 53.4°F11.9°C 95% 6.3 mph NW10.1 kmh NW 12.5 mph20.1 kmh 29.68 in1005.1 mb 0.00 in0.0 mm 0.00 in0.0 mm 0.18 in4.6 mm
03:50 PM 55.0°F12.8°C 53.6°F12.0°C 95% 5.4 mph NW8.7 kmh NW 13.9 mph22.4 kmh 29.68 in1005.1 mb 0.00 in0.0 mm 0.00 in0.0 mm 0.18 in4.6 mm
03:55 PM 55.0°F12.8°C 53.6°F12.0°C 95% 5.4 mph NW8.7 kmh NW 13.9 mph22.4 kmh 29.68 in1005.1 mb 0.00 in0.0 mm 0.00 in0.0 mm 0.18 in4.6 mm
04:00 PM 55.0°F12.8°C 53.6°F12.0°C 95% 5.4 mph NW8.7 kmh NW 11.6 mph18.7 kmh 29.68 in1005.1 mb 0.00 in0.0 mm 0.00 in0.0 mm 0.18 in4.6 mm
04:05 PM 55.0°F12.8°C 53.6°F12.0°C 95% 5.8 mph NW9.3 kmh NW 13.4 mph21.6 kmh 29.68 in1005.1 mb 0.00 in0.0 mm 0.00 in0.0 mm 0.18 in4.6 mm
04:10 PM 54.6°F12.6°C 53.2°F11.8°C 95% 6.3 mph NW10.1 kmh NW 15.7 mph25.3 kmh 29.68 in1005.1 mb 0.00 in0.0 mm 0.00 in0.0 mm 0.18 in4.6 mm
04:15 PM 54.6°F12.6°C 53.2°F11.8°C 95% 5.8 mph NW9.3 kmh NW 15.7 mph25.3 kmh 29.69 in1005.4 mb 0.00 in0.0 mm 0.00 in0.0 mm 0.18 in4.6 mm
04:20 PM 54.5°F12.5°C 53.1°F11.7°C 95% 4.9 mph NW7.9 kmh NW 9.4 mph15.1 kmh 29.69 in1005.4 mb 0.00 in0.0 mm 0.00 in0.0 mm 0.18 in4.6 mm
04:25 PM 54.1°F12.3°C 52.7°F11.5°C 95% 4.5 mph NW7.2 kmh NW 13.9 mph22.4 kmh 29.69 in1005.4 mb 0.00 in0.0 mm 0.00 in0.0 mm 0.18 in4.6 mm
04:30 PM 53.9°F12.2°C 52.5°F11.4°C 95% 5.4 mph NW8.7 kmh NW 13.9 mph22.4 kmh 29.69 in1005.4 mb 0.00 in0.0 mm 0.00 in0.0 mm 0.18 in4.6 mm
04:35 PM 53.7°F12.1°C 52.6°F11.4°C 96% 4.9 mph NW7.9 kmh NW 10.8 mph17.4 kmh 29.70 in1005.8 mb 0.00 in0.0 mm 0.00 in0.0 mm 0.18 in4.6 mm
04:40 PM 53.6°F12.0°C 52.5°F11.4°C 96% 4.5 mph NW7.2 kmh NW 10.3 mph16.6 kmh 29.70 in1005.8 mb 0.00 in0.0 mm 0.00 in0.0 mm 0.18 in4.6 mm
04:45 PM 53.6°F12.0°C 52.5°F11.4°C 96% 5.4 mph NW8.7 kmh NW 10.8 mph17.4 kmh 29.70 in1005.8 mb 0.00 in0.0 mm 0.00 in0.0 mm 0.18 in4.6 mm
04:50 PM 53.6°F12.0°C 52.5°F11.4°C 96% 4.9 mph NW7.9 kmh NW 10.8 mph17.4 kmh 29.70 in1005.8 mb 0.00 in0.0 mm 0.00 in0.0 mm 0.18 in4.6 mm
04:55 PM 53.0°F11.7°C 51.9°F11.1°C 96% 4.9 mph NW7.9 kmh NW 16.6 mph26.7 kmh 29.71 in1006.1 mb 0.00 in0.0 mm 0.00 in0.0 mm 0.18 in4.6 mm
05:00 PM 53.0°F11.7°C 52.2°F11.2°C 97% 5.8 mph NW9.3 kmh NW 16.6 mph26.7 kmh 29.71 in1006.1 mb 0.00 in0.0 mm 0.00 in0.0 mm 0.18 in4.6 mm
05:05 PM 52.7°F11.5°C 51.9°F11.1°C 97% 5.4 mph NW8.7 kmh NW 11.2 mph18.0 kmh 29.71 in1006.1 mb 0.00 in0.0 mm 0.00 in0.0 mm 0.18 in4.6 mm
05:10 PM 52.7°F11.5°C 51.9°F11.1°C 97% 5.8 mph NW9.3 kmh NW 11.6 mph18.7 kmh 29.71 in1006.1 mb 0.00 in0.0 mm 0.00 in0.0 mm 0.18 in4.6 mm
05:15 PM 52.7°F11.5°C 51.9°F11.1°C 97% 5.8 mph NW9.3 kmh NW 11.6 mph18.7 kmh 29.71 in1006.1 mb 0.00 in0.0 mm 0.00 in0.0 mm 0.18 in4.6 mm
05:20 PM 52.7°F11.5°C 51.9°F11.1°C 97% 5.4 mph NW8.7 kmh NW 17.0 mph27.4 kmh 29.72 in1006.4 mb 0.02 in0.5 mm 0.24 in6.1 mm 0.20 in5.1 mm
05:25 PM 52.7°F11.5°C 51.9°F11.1°C 97% 5.8 mph NW9.3 kmh NW 17.0 mph27.4 kmh 29.72 in1006.4 mb 0.02 in0.5 mm 0.00 in0.0 mm 0.20 in5.1 mm
05:30 PM 52.7°F11.5°C 51.9°F11.1°C 97% 5.4 mph NW8.7 kmh NW 13.4 mph21.6 kmh 29.72 in1006.4 mb 0.02 in0.5 mm 0.00 in0.0 mm 0.20 in5.1 mm
05:35 PM 51.9°F11.1°C 51.4°F10.8°C 98% 4.9 mph WNW7.9 kmh WNW 10.8 mph17.4 kmh 29.73 in1006.8 mb 0.02 in0.5 mm 0.00 in0.0 mm 0.20 in5.1 mm
05:40 PM 51.9°F11.1°C 51.4°F10.8°C 98% 4.5 mph WNW7.2 kmh WNW 10.8 mph17.4 kmh 29.73 in1006.8 mb 0.02 in0.5 mm 0.00 in0.0 mm 0.20 in5.1 mm
05:45 PM 51.8°F11.0°C 51.3°F10.7°C 98% 4.5 mph WNW7.2 kmh WNW 4.0 mph6.4 kmh 29.73 in1006.8 mb 0.02 in0.5 mm 0.00 in0.0 mm 0.20 in5.1 mm
05:50 PM 51.8°F11.0°C 51.3°F10.7°C 98% 4.9 mph W7.9 kmh W 4.9 mph7.9 kmh 29.73 in1006.8 mb 0.02 in0.5 mm 0.00 in0.0 mm 0.20 in5.1 mm
05:55 PM 51.6°F10.9°C 51.1°F10.6°C 98% 4.5 mph W7.2 kmh W 8.5 mph13.7 kmh 29.73 in1006.8 mb 0.03 in0.8 mm 0.12 in3.0 mm 0.21 in5.3 mm
06:00 PM 51.6°F10.9°C 51.1°F10.6°C 98% 4.9 mph W7.9 kmh W 8.5 mph13.7 kmh 29.74 in1007.1 mb 0.03 in0.8 mm 0.00 in0.0 mm 0.21 in5.3 mm
06:05 PM 51.6°F10.9°C 51.1°F10.6°C 98% 4.9 mph W7.9 kmh W 8.5 mph13.7 kmh 29.74 in1007.1 mb 0.03 in0.8 mm 0.00 in0.0 mm 0.21 in5.3 mm
06:10 PM 51.4°F10.8°C 50.9°F10.5°C 98% 4.5 mph WSW7.2 kmh WSW 6.3 mph10.1 kmh 29.74 in1007.1 mb 0.03 in0.8 mm 0.00 in0.0 mm 0.21 in5.3 mm
06:15 PM 51.4°F10.8°C 50.9°F10.5°C 98% 3.1 mph WNW5.0 kmh WNW 4.5 mph7.2 kmh 29.74 in1007.1 mb 0.03 in0.8 mm 0.00 in0.0 mm 0.21 in5.3 mm
06:20 PM 51.4°F10.8°C 50.9°F10.5°C 98% 3.6 mph NW5.8 kmh NW 4.5 mph7.2 kmh 29.75 in1007.5 mb 0.02 in0.5 mm 0.00 in0.0 mm 0.21 in5.3 mm
06:25 PM 51.4°F10.8°C 50.9°F10.5°C 98% 3.6 mph W5.8 kmh W 4.5 mph7.2 kmh 29.75 in1007.5 mb 0.02 in0.5 mm 0.00 in0.0 mm 0.21 in5.3 mm
06:30 PM 51.4°F10.8°C 50.9°F10.5°C 98% 3.6 mph WNW5.8 kmh WNW 8.5 mph13.7 kmh 29.75 in1007.5 mb 0.02 in0.5 mm 0.00 in0.0 mm 0.21 in5.3 mm
06:35 PM 51.4°F10.8°C 50.9°F10.5°C 98% 3.6 mph W5.8 kmh W 8.5 mph13.7 kmh 29.75 in1007.5 mb 0.01 in0.3 mm 0.00 in0.0 mm 0.21 in5.3 mm
06:40 PM 51.2°F10.7°C 50.7°F10.4°C 98% 3.6 mph WSW5.8 kmh WSW 10.8 mph17.4 kmh 29.76 in1007.8 mb 0.01 in0.3 mm 0.00 in0.0 mm 0.21 in5.3 mm
06:45 PM 51.2°F10.7°C 50.7°F10.4°C 98% 4.0 mph WSW6.4 kmh WSW 10.8 mph17.4 kmh 29.76 in1007.8 mb 0.01 in0.3 mm 0.00 in0.0 mm 0.21 in5.3 mm
06:50 PM 51.0°F10.6°C 50.5°F10.3°C 98% 4.5 mph WSW7.2 kmh WSW 12.5 mph20.1 kmh 29.76 in1007.8 mb 0.00 in0.0 mm 0.00 in0.0 mm 0.21 in5.3 mm
06:55 PM 51.0°F10.6°C 50.5°F10.3°C 98% 5.4 mph WSW8.7 kmh WSW 13.0 mph20.9 kmh 29.76 in1007.8 mb 0.00 in0.0 mm 0.00 in0.0 mm 0.21 in5.3 mm
07:00 PM 51.0°F10.6°C 50.5°F10.3°C 98% 5.8 mph WSW9.3 kmh WSW 13.4 mph21.6 kmh 29.76 in1007.8 mb 0.00 in0.0 mm 0.00 in0.0 mm 0.21 in5.3 mm
07:05 PM 51.0°F10.6°C 50.5°F10.3°C 98% 5.8 mph WSW9.3 kmh WSW 17.0 mph27.4 kmh 29.77 in1008.1 mb 0.00 in0.0 mm 0.00 in0.0 mm 0.21 in5.3 mm
07:10 PM 51.0°F10.6°C 50.5°F10.3°C 98% 5.8 mph WSW9.3 kmh WSW 17.0 mph27.4 kmh 29.77 in1008.1 mb 0.00 in0.0 mm 0.00 in0.0 mm 0.21 in5.3 mm
07:15 PM 51.0°F10.6°C 50.5°F10.3°C 98% 4.9 mph WSW7.9 kmh WSW 10.3 mph16.6 kmh 29.77 in1008.1 mb 0.00 in0.0 mm 0.00 in0.0 mm 0.21 in5.3 mm
07:20 PM 51.0°F10.6°C 50.5°F10.3°C 98% 4.0 mph W6.4 kmh W 11.2 mph18.0 kmh 29.77 in1008.1 mb 0.00 in0.0 mm 0.00 in0.0 mm 0.21 in5.3 mm
07:25 PM 51.0°F10.6°C 50.5°F10.3°C 98% 3.6 mph W5.8 kmh W 11.2 mph18.0 kmh 29.77 in1008.1 mb 0.00 in0.0 mm 0.00 in0.0 mm 0.21 in5.3 mm
07:30 PM 51.0°F10.6°C 50.5°F10.3°C 98% 4.0 mph WSW6.4 kmh WSW 11.2 mph18.0 kmh 29.77 in1008.1 mb 0.00 in0.0 mm 0.00 in0.0 mm 0.21 in5.3 mm
07:35 PM 51.0°F10.6°C 50.2°F10.1°C 97% 4.9 mph WSW7.9 kmh WSW 11.2 mph18.0 kmh 29.77 in1008.1 mb 0.00 in0.0 mm 0.00 in0.0 mm 0.21 in5.3 mm
07:40 PM 51.0°F10.6°C 50.2°F10.1°C 97% 5.4 mph WSW8.7 kmh WSW 11.6 mph18.7 kmh 29.77 in1008.1 mb 0.00 in0.0 mm 0.00 in0.0 mm 0.21 in5.3 mm
07:45 PM 51.0°F10.6°C 50.2°F10.1°C 97% 4.9 mph WSW7.9 kmh WSW 11.6 mph18.7 kmh 29.78 in1008.5 mb 0.00 in0.0 mm 0.00 in0.0 mm 0.21 in5.3 mm
07:50 PM 51.0°F10.6°C 50.2°F10.1°C 97% 4.5 mph WSW7.2 kmh WSW 9.0 mph14.5 kmh 29.77 in1008.1 mb 0.00 in0.0 mm 0.00 in0.0 mm 0.21 in5.3 mm
07:55 PM 51.0°F10.6°C 50.5°F10.3°C 98% 4.5 mph WSW7.2 kmh WSW 10.8 mph17.4 kmh 29.77 in1008.1 mb 0.00 in0.0 mm 0.00 in0.0 mm 0.21 in5.3 mm
08:00 PM 51.0°F10.6°C 50.5°F10.3°C 98% 4.5 mph WSW7.2 kmh WSW 10.8 mph17.4 kmh 29.78 in1008.5 mb 0.00 in0.0 mm 0.00 in0.0 mm 0.21 in5.3 mm
08:05 PM 51.0°F10.6°C 50.5°F10.3°C 98% 3.6 mph WSW5.8 kmh WSW 8.1 mph13.0 kmh 29.78 in1008.5 mb 0.00 in0.0 mm 0.00 in0.0 mm 0.21 in5.3 mm
08:10 PM 51.0°F10.6°C 50.5°F10.3°C 98% 2.7 mph WSW4.3 kmh WSW 7.2 mph11.6 kmh 29.78 in1008.5 mb 0.00 in0.0 mm 0.00 in0.0 mm 0.21 in5.3 mm
08:15 PM 51.0°F10.6°C 50.5°F10.3°C 98% 2.2 mph WSW3.5 kmh WSW 5.4 mph8.7 kmh 29.78 in1008.5 mb 0.01 in0.3 mm 0.12 in3.0 mm 0.22 in5.6 mm
08:20 PM 51.0°F10.6°C 50.5°F10.3°C 98% 2.2 mph WSW3.5 kmh WSW 6.7 mph10.8 kmh 29.79 in1008.8 mb 0.01 in0.3 mm 0.00 in0.0 mm 0.22 in5.6 mm
08:25 PM 51.0°F10.6°C 50.5°F10.3°C 98% 2.7 mph W4.3 kmh W 6.7 mph10.8 kmh 29.79 in1008.8 mb 0.02 in0.5 mm 0.12 in3.0 mm 0.23 in5.8 mm
08:30 PM 51.0°F10.6°C 50.5°F10.3°C 98% 2.2 mph W3.5 kmh W 6.7 mph10.8 kmh 29.79 in1008.8 mb 0.02 in0.5 mm 0.00 in0.0 mm 0.23 in5.8 mm
08:35 PM 51.2°F10.7°C 50.7°F10.4°C 98% 2.2 mph W3.5 kmh W 5.4 mph8.7 kmh 29.79 in1008.8 mb 0.02 in0.5 mm 0.00 in0.0 mm 0.23 in5.8 mm
08:40 PM 51.2°F10.7°C 50.7°F10.4°C 98% 2.2 mph WNW3.5 kmh WNW 5.4 mph8.7 kmh 29.79 in1008.8 mb 0.02 in0.5 mm 0.00 in0.0 mm 0.23 in5.8 mm
08:45 PM 51.2°F10.7°C 50.7°F10.4°C 98% 2.2 mph WNW3.5 kmh WNW 4.5 mph7.2 kmh 29.79 in1008.8 mb 0.02 in0.5 mm 0.00 in0.0 mm 0.24 in6.1 mm
08:50 PM 51.2°F10.7°C 50.7°F10.4°C 98% 2.2 mph WNW3.5 kmh WNW 4.5 mph7.2 kmh 29.79 in1008.8 mb 0.02 in0.5 mm 0.00 in0.0 mm 0.24 in6.1 mm
08:55 PM 51.2°F10.7°C 50.7°F10.4°C 98% 2.2 mph WNW3.5 kmh WNW 4.9 mph7.9 kmh 29.79 in1008.8 mb 0.03 in0.8 mm 0.12 in3.0 mm 0.24 in6.1 mm
09:00 PM 51.0°F10.6°C 50.8°F10.4°C 99% 2.7 mph WNW4.3 kmh WNW 5.4 mph8.7 kmh 29.80 in1009.1 mb 0.03 in0.8 mm 0.00 in0.0 mm 0.24 in6.1 mm
09:05 PM 51.2°F10.7°C 51.0°F10.6°C 99% 2.7 mph NW4.3 kmh NW 6.3 mph10.1 kmh 29.80 in1009.1 mb 0.04 in1.0 mm 0.12 in3.0 mm 0.25 in6.4 mm
09:10 PM 51.2°F10.7°C 51.0°F10.6°C 99% 3.1 mph NW5.0 kmh NW 6.3 mph10.1 kmh 29.80 in1009.1 mb 0.05 in1.3 mm 0.12 in3.0 mm 0.26 in6.6 mm
09:15 PM 51.2°F10.7°C 51.0°F10.6°C 99% 3.6 mph NW5.8 kmh NW 6.3 mph10.1 kmh 29.80 in1009.1 mb 0.04 in1.0 mm 0.00 in0.0 mm 0.26 in6.6 mm
09:20 PM 51.2°F10.7°C 51.0°F10.6°C 99% 2.7 mph NW4.3 kmh NW 6.3 mph10.1 kmh 29.80 in1009.1 mb 0.04 in1.0 mm 0.00 in0.0 mm 0.26 in6.6 mm
09:25 PM 51.2°F10.7°C 51.0°F10.6°C 99% 2.7 mph WNW4.3 kmh WNW 4.0 mph6.4 kmh 29.80 in1009.1 mb 0.04 in1.0 mm 0.00 in0.0 mm 0.27 in6.9 mm
09:30 PM 51.4°F10.8°C 51.2°F10.7°C 99% 3.1 mph WNW5.0 kmh WNW 7.2 mph11.6 kmh 29.80 in1009.1 mb 0.04 in1.0 mm 0.00 in0.0 mm 0.27 in6.9 mm
09:35 PM 51.4°F10.8°C 51.2°F10.7°C 99% 3.6 mph WNW5.8 kmh WNW 7.2 mph11.6 kmh 29.80 in1009.1 mb 0.05 in1.3 mm 0.12 in3.0 mm 0.28 in7.1 mm
09:40 PM 51.4°F10.8°C 51.2°F10.7°C 99% 4.0 mph NW6.4 kmh NW 11.6 mph18.7 kmh 29.80 in1009.1 mb 0.05 in1.3 mm 0.00 in0.0 mm 0.28 in7.1 mm
09:45 PM 51.4°F10.8°C 51.2°F10.7°C 99% 3.6 mph NW5.8 kmh NW 11.6 mph18.7 kmh 29.80 in1009.1 mb 0.05 in1.3 mm 0.00 in0.0 mm 0.28 in7.1 mm
09:50 PM 51.4°F10.8°C 51.2°F10.7°C 99% 3.1 mph WNW5.0 kmh WNW 6.3 mph10.1 kmh 29.80 in1009.1 mb 0.04 in1.0 mm 0.00 in0.0 mm 0.28 in7.1 mm
09:55 PM 51.6°F10.9°C 51.4°F10.8°C 99% 3.6 mph WNW5.8 kmh WNW 6.3 mph10.1 kmh 29.80 in1009.1 mb 0.04 in1.0 mm 0.00 in0.0 mm 0.28 in7.1 mm
10:00 PM 51.6°F10.9°C 51.4°F10.8°C 99% 3.1 mph WNW5.0 kmh WNW 6.3 mph10.1 kmh 29.81 in1009.5 mb 0.04 in1.0 mm 0.00 in0.0 mm 0.28 in7.1 mm
10:05 PM 51.6°F10.9°C 51.4°F10.8°C 99% 2.7 mph WNW4.3 kmh WNW 4.9 mph7.9 kmh 29.81 in1009.5 mb 0.03 in0.8 mm 0.00 in0.0 mm 0.29 in7.4 mm
10:10 PM 51.6°F10.9°C 51.4°F10.8°C 99% 1.8 mph WNW2.9 kmh WNW 4.9 mph7.9 kmh 29.81 in1009.5 mb 0.03 in0.8 mm 0.00 in0.0 mm 0.29 in7.4 mm
10:15 PM 51.6°F10.9°C 51.4°F10.8°C 99% 2.2 mph WNW3.5 kmh WNW 6.3 mph10.1 kmh 29.81 in1009.5 mb 0.03 in0.8 mm 0.00 in0.0 mm 0.29 in7.4 mm
10:20 PM 51.6°F10.9°C 51.4°F10.8°C 99% 3.1 mph W5.0 kmh W 6.3 mph10.1 kmh 29.82 in1009.8 mb 0.03 in0.8 mm 0.00 in0.0 mm 0.29 in7.4 mm
10:25 PM 51.6°F10.9°C 51.4°F10.8°C 99% 3.1 mph W5.0 kmh W 6.3 mph10.1 kmh 29.82 in1009.8 mb 0.02 in0.5 mm 0.00 in0.0 mm 0.29 in7.4 mm
10:30 PM 51.6°F10.9°C 51.4°F10.8°C 99% 2.7 mph W4.3 kmh W 5.4 mph8.7 kmh 29.82 in1009.8 mb 0.03 in0.8 mm 0.12 in3.0 mm 0.30 in7.6 mm
10:35 PM 51.8°F11.0°C 51.6°F10.9°C 99% 3.1 mph NW5.0 kmh NW 7.2 mph11.6 kmh 29.82 in1009.8 mb 0.03 in0.8 mm 0.00 in0.0 mm 0.31 in7.9 mm
10:40 PM 51.8°F11.0°C 51.6°F10.9°C 99% 4.0 mph WNW6.4 kmh WNW 7.2 mph11.6 kmh 29.82 in1009.8 mb 0.03 in0.8 mm 0.00 in0.0 mm 0.31 in7.9 mm
10:45 PM 51.8°F11.0°C 51.6°F10.9°C 99% 3.6 mph WNW5.8 kmh WNW 6.7 mph10.8 kmh 29.82 in1009.8 mb 0.03 in0.8 mm 0.00 in0.0 mm 0.31 in7.9 mm
10:50 PM 51.8°F11.0°C 51.6°F10.9°C 99% 2.7 mph NW4.3 kmh NW 5.4 mph8.7 kmh 29.82 in1009.8 mb 0.03 in0.8 mm 0.00 in0.0 mm 0.31 in7.9 mm
10:55 PM 51.8°F11.0°C 51.6°F10.9°C 99% 3.1 mph NW5.0 kmh NW 8.1 mph13.0 kmh 29.82 in1009.8 mb 0.03 in0.8 mm 0.00 in0.0 mm 0.31 in7.9 mm
11:00 PM 51.6°F10.9°C 51.4°F10.8°C 99% 3.6 mph NW5.8 kmh NW 8.1 mph13.0 kmh 29.82 in1009.8 mb 0.03 in0.8 mm 0.00 in0.0 mm 0.31 in7.9 mm
11:05 PM 51.6°F10.9°C 51.4°F10.8°C 99% 3.6 mph NW5.8 kmh NW 7.6 mph12.2 kmh 29.82 in1009.8 mb 0.02 in0.5 mm 0.00 in0.0 mm 0.31 in7.9 mm
11:10 PM 51.6°F10.9°C 51.4°F10.8°C 99% 3.1 mph WNW5.0 kmh WNW 7.2 mph11.6 kmh 29.82 in1009.8 mb 0.02 in0.5 mm 0.00 in0.0 mm 0.31 in7.9 mm
11:15 PM 51.6°F10.9°C 51.4°F10.8°C 99% 3.1 mph NW5.0 kmh NW 7.6 mph12.2 kmh 29.83 in1010.2 mb 0.02 in0.5 mm 0.00 in0.0 mm 0.31 in7.9 mm
11:20 PM 51.6°F10.9°C 51.4°F10.8°C 99% 3.1 mph NW5.0 kmh NW 7.6 mph12.2 kmh 29.83 in1010.2 mb 0.02 in0.5 mm 0.00 in0.0 mm 0.31 in7.9 mm
11:25 PM 51.6°F10.9°C 51.4°F10.8°C 99% 3.1 mph NW5.0 kmh NW 7.6 mph12.2 kmh 29.83 in1010.2 mb 0.03 in0.8 mm 0.12 in3.0 mm 0.32 in8.1 mm
11:30 PM 51.6°F10.9°C 51.4°F10.8°C 99% 2.7 mph NW4.3 kmh NW 5.8 mph9.3 kmh 29.83 in1010.2 mb 0.02 in0.5 mm 0.00 in0.0 mm 0.32 in8.1 mm
11:35 PM 51.6°F10.9°C 51.4°F10.8°C 99% 3.1 mph NW5.0 kmh NW 6.3 mph10.1 kmh 29.83 in1010.2 mb 0.02 in0.5 mm 0.00 in0.0 mm 0.32 in8.1 mm
11:40 PM 51.6°F10.9°C 51.4°F10.8°C 99% 3.1 mph NW5.0 kmh NW 6.3 mph10.1 kmh 29.83 in1010.2 mb 0.02 in0.5 mm 0.00 in0.0 mm 0.32 in8.1 mm
11:45 PM 51.6°F10.9°C 51.4°F10.8°C 99% 2.7 mph NW4.3 kmh NW 4.9 mph7.9 kmh 29.83 in1010.2 mb 0.01 in0.3 mm 0.00 in0.0 mm 0.32 in8.1 mm
11:50 PM 51.6°F10.9°C 51.4°F10.8°C 99% 2.7 mph NW4.3 kmh NW 6.7 mph10.8 kmh 29.83 in1010.2 mb 0.01 in0.3 mm 0.00 in0.0 mm 0.32 in8.1 mm
11:55 PM 51.6°F10.9°C 51.4°F10.8°C 99% 3.1 mph NW5.0 kmh NW 6.7 mph10.8 kmh 29.83 in1010.2 mb 0.01 in0.3 mm 0.00 in0.0 mm 0.32 in8.1 mm